sensor_id;sensor_type;location;lat;lon;timestamp;P1;durP1;ratioP1;P2;durP2;ratioP2
52942;SDS011;38809;53.300;6.614;2023-07-20T00:00:52;2.50;;;1.63;;
52942;SDS011;38809;53.300;6.614;2023-07-20T00:03:18;2.72;;;1.70;;
52942;SDS011;38809;53.300;6.614;2023-07-20T00:05:48;2.25;;;1.42;;
52942;SDS011;38809;53.300;6.614;2023-07-20T00:10:40;1.83;;;1.20;;
52942;SDS011;38809;53.300;6.614;2023-07-20T00:13:06;2.30;;;1.50;;
52942;SDS011;38809;53.300;6.614;2023-07-20T00:15:32;2.15;;;1.55;;
52942;SDS011;38809;53.300;6.614;2023-07-20T00:17:58;3.15;;;1.33;;
52942;SDS011;38809;53.300;6.614;2023-07-20T00:20:24;3.15;;;1.48;;
52942;SDS011;38809;53.300;6.614;2023-07-20T00:22:50;2.17;;;1.30;;
52942;SDS011;38809;53.300;6.614;2023-07-20T00:25:17;1.63;;;1.23;;
52942;SDS011;38809;53.300;6.614;2023-07-20T00:30:09;2.88;;;1.30;;
52942;SDS011;38809;53.300;6.614;2023-07-20T00:32:35;2.05;;;1.05;;
52942;SDS011;38809;53.300;6.614;2023-07-20T00:35:00;2.03;;;1.23;;
52942;SDS011;38809;53.300;6.614;2023-07-20T00:37:26;2.03;;;1.08;;
52942;SDS011;38809;53.300;6.614;2023-07-20T00:42:18;1.67;;;1.08;;
52942;SDS011;38809;53.300;6.614;2023-07-20T00:44:43;2.33;;;1.20;;
52942;SDS011;38809;53.300;6.614;2023-07-20T00:47:09;1.60;;;0.93;;
52942;SDS011;38809;53.300;6.614;2023-07-20T00:49:35;1.48;;;0.90;;
52942;SDS011;38809;53.300;6.614;2023-07-20T00:52:02;1.83;;;1.00;;
52942;SDS011;38809;53.300;6.614;2023-07-20T00:54:30;3.35;;;1.00;;
52942;SDS011;38809;53.300;6.614;2023-07-20T00:56:56;2.10;;;1.20;;
52942;SDS011;38809;53.300;6.614;2023-07-20T00:59:23;2.80;;;1.23;;
52942;SDS011;38809;53.300;6.614;2023-07-20T01:01:49;2.72;;;1.00;;
52942;SDS011;38809;53.300;6.614;2023-07-20T01:04:14;1.60;;;0.93;;
52942;SDS011;38809;53.300;6.614;2023-07-20T01:14:46;1.80;;;1.10;;
52942;SDS011;38809;53.300;6.614;2023-07-20T01:17:12;1.98;;;1.10;;
52942;SDS011;38809;53.300;6.614;2023-07-20T01:19:38;1.80;;;1.10;;
52942;SDS011;38809;53.300;6.614;2023-07-20T01:30:25;1.50;;;1.10;;
52942;SDS011;38809;53.300;6.614;2023-07-20T01:33:08;1.98;;;1.27;;
52942;SDS011;38809;53.300;6.614;2023-07-20T01:35:36;2.50;;;1.40;;
52942;SDS011;38809;53.300;6.614;2023-07-20T01:38:03;1.65;;;1.10;;
52942;SDS011;38809;53.300;6.614;2023-07-20T01:42:55;2.38;;;0.93;;
52942;SDS011;38809;53.300;6.614;2023-07-20T01:45:21;3.55;;;1.55;;
52942;SDS011;38809;53.300;6.614;2023-07-20T01:47:47;1.55;;;0.98;;
52942;SDS011;38809;53.300;6.614;2023-07-20T01:50:12;1.65;;;1.05;;
52942;SDS011;38809;53.300;6.614;2023-07-20T01:52:38;3.17;;;1.08;;
52942;SDS011;38809;53.300;6.614;2023-07-20T01:55:04;2.38;;;1.13;;
52942;SDS011;38809;53.300;6.614;2023-07-20T01:57:30;2.03;;;1.00;;
52942;SDS011;38809;53.300;6.614;2023-07-20T01:59:55;1.63;;;1.13;;
52942;SDS011;38809;53.300;6.614;2023-07-20T02:02:23;2.47;;;0.98;;
52942;SDS011;38809;53.300;6.614;2023-07-20T02:04:51;2.28;;;1.27;;
52942;SDS011;38809;53.300;6.614;2023-07-20T02:07:17;2.50;;;1.30;;
52942;SDS011;38809;53.300;6.614;2023-07-20T02:09:43;2.00;;;1.10;;
52942;SDS011;38809;53.300;6.614;2023-07-20T02:12:08;2.03;;;1.13;;
52942;SDS011;38809;53.300;6.614;2023-07-20T02:14:34;2.40;;;1.10;;
52942;SDS011;38809;53.300;6.614;2023-07-20T02:17:00;2.92;;;1.42;;
52942;SDS011;38809;53.300;6.614;2023-07-20T02:19:26;2.83;;;1.15;;
52942;SDS011;38809;53.300;6.614;2023-07-20T02:21:54;2.58;;;1.10;;
52942;SDS011;38809;53.300;6.614;2023-07-20T02:24:19;2.47;;;1.40;;
52942;SDS011;38809;53.300;6.614;2023-07-20T02:26:45;3.30;;;1.13;;
52942;SDS011;38809;53.300;6.614;2023-07-20T02:29:11;2.30;;;1.35;;
52942;SDS011;38809;53.300;6.614;2023-07-20T02:31:37;2.40;;;1.27;;
52942;SDS011;38809;53.300;6.614;2023-07-20T02:34:04;2.47;;;1.20;;
52942;SDS011;38809;53.300;6.614;2023-07-20T02:36:31;2.40;;;1.27;;
52942;SDS011;38809;53.300;6.614;2023-07-20T02:38:58;2.03;;;1.27;;
52942;SDS011;38809;53.300;6.614;2023-07-20T02:41:24;3.08;;;1.15;;
52942;SDS011;38809;53.300;6.614;2023-07-20T02:43:50;2.00;;;1.13;;
52942;SDS011;38809;53.300;6.614;2023-07-20T02:46:15;2.75;;;0.90;;
52942;SDS011;38809;53.300;6.614;2023-07-20T02:48:41;1.88;;;1.10;;
52942;SDS011;38809;53.300;6.614;2023-07-20T02:51:07;2.05;;;1.13;;
52942;SDS011;38809;53.300;6.614;2023-07-20T02:53:32;2.88;;;1.38;;
52942;SDS011;38809;53.300;6.614;2023-07-20T02:55:58;2.50;;;1.80;;
52942;SDS011;38809;53.300;6.614;2023-07-20T02:58:24;2.40;;;1.60;;
52942;SDS011;38809;53.300;6.614;2023-07-20T03:00:50;3.75;;;1.50;;
52942;SDS011;38809;53.300;6.614;2023-07-20T03:03:15;2.17;;;1.52;;
52942;SDS011;38809;53.300;6.614;2023-07-20T03:05:41;1.90;;;1.20;;
52942;SDS011;38809;53.300;6.614;2023-07-20T03:08:07;2.28;;;1.20;;
52942;SDS011;38809;53.300;6.614;2023-07-20T03:10:37;2.03;;;1.23;;
52942;SDS011;38809;53.300;6.614;2023-07-20T03:13:04;2.17;;;1.10;;
52942;SDS011;38809;53.300;6.614;2023-07-20T03:15:30;2.70;;;1.30;;
52942;SDS011;38809;53.300;6.614;2023-07-20T03:17:56;1.83;;;1.30;;
52942;SDS011;38809;53.300;6.614;2023-07-20T03:20:23;1.85;;;1.30;;
52942;SDS011;38809;53.300;6.614;2023-07-20T03:22:49;2.05;;;1.25;;
52942;SDS011;38809;53.300;6.614;2023-07-20T03:25:15;2.90;;;1.38;;
52942;SDS011;38809;53.300;6.614;2023-07-20T03:27:42;2.30;;;1.50;;
52942;SDS011;38809;53.300;6.614;2023-07-20T03:30:08;4.15;;;1.60;;
52942;SDS011;38809;53.300;6.614;2023-07-20T03:32:35;3.17;;;1.33;;
52942;SDS011;38809;53.300;6.614;2023-07-20T03:35:01;2.20;;;1.30;;
52942;SDS011;38809;53.300;6.614;2023-07-20T03:37:27;2.25;;;1.60;;
52942;SDS011;38809;53.300;6.614;2023-07-20T03:39:52;2.47;;;1.20;;
52942;SDS011;38809;53.300;6.614;2023-07-20T03:42:18;2.55;;;1.38;;
52942;SDS011;38809;53.300;6.614;2023-07-20T03:44:44;3.22;;;1.60;;
52942;SDS011;38809;53.300;6.614;2023-07-20T03:47:09;2.40;;;1.60;;
52942;SDS011;38809;53.300;6.614;2023-07-20T03:49:35;2.75;;;1.30;;
52942;SDS011;38809;53.300;6.614;2023-07-20T03:52:01;2.72;;;1.50;;
52942;SDS011;38809;53.300;6.614;2023-07-20T03:54:28;2.70;;;1.67;;
52942;SDS011;38809;53.300;6.614;2023-07-20T03:56:54;2.75;;;1.75;;
52942;SDS011;38809;53.300;6.614;2023-07-20T03:59:20;3.60;;;1.80;;
52942;SDS011;38809;53.300;6.614;2023-07-20T04:01:45;2.63;;;1.70;;
52942;SDS011;38809;53.300;6.614;2023-07-20T04:04:11;2.72;;;1.67;;
52942;SDS011;38809;53.300;6.614;2023-07-20T04:06:37;2.35;;;1.83;;
52942;SDS011;38809;53.300;6.614;2023-07-20T04:09:03;2.60;;;1.90;;
52942;SDS011;38809;53.300;6.614;2023-07-20T04:11:30;2.97;;;1.65;;
52942;SDS011;38809;53.300;6.614;2023-07-20T04:13:56;2.45;;;1.85;;
52942;SDS011;38809;53.300;6.614;2023-07-20T04:16:22;5.32;;;1.63;;
52942;SDS011;38809;53.300;6.614;2023-07-20T04:18:47;2.63;;;1.80;;
52942;SDS011;38809;53.300;6.614;2023-07-20T04:21:13;3.97;;;1.67;;
52942;SDS011;38809;53.300;6.614;2023-07-20T04:23:39;2.28;;;1.83;;
52942;SDS011;38809;53.300;6.614;2023-07-20T04:26:04;2.75;;;2.05;;
52942;SDS011;38809;53.300;6.614;2023-07-20T04:28:31;2.63;;;1.88;;
52942;SDS011;38809;53.300;6.614;2023-07-20T04:31:09;3.28;;;2.20;;
52942;SDS011;38809;53.300;6.614;2023-07-20T04:33:36;3.40;;;1.75;;
52942;SDS011;38809;53.300;6.614;2023-07-20T04:36:01;4.45;;;1.95;;
52942;SDS011;38809;53.300;6.614;2023-07-20T04:38:28;3.13;;;1.83;;
52942;SDS011;38809;53.300;6.614;2023-07-20T04:40:53;2.35;;;1.67;;
52942;SDS011;38809;53.300;6.614;2023-07-20T04:43:19;2.38;;;1.90;;
52942;SDS011;38809;53.300;6.614;2023-07-20T04:45:45;2.10;;;1.65;;
52942;SDS011;38809;53.300;6.614;2023-07-20T04:48:12;4.28;;;1.83;;
52942;SDS011;38809;53.300;6.614;2023-07-20T04:50:40;2.88;;;1.90;;
52942;SDS011;38809;53.300;6.614;2023-07-20T04:53:08;4.05;;;1.77;;
52942;SDS011;38809;53.300;6.614;2023-07-20T04:55:35;2.85;;;1.70;;
52942;SDS011;38809;53.300;6.614;2023-07-20T04:58:02;2.08;;;1.60;;
52942;SDS011;38809;53.300;6.614;2023-07-20T05:00:32;7.38;;;2.35;;
52942;SDS011;38809;53.300;6.614;2023-07-20T05:02:59;3.95;;;1.63;;
52942;SDS011;38809;53.300;6.614;2023-07-20T05:05:24;3.97;;;1.42;;
52942;SDS011;38809;53.300;6.614;2023-07-20T05:07:50;2.13;;;1.45;;
52942;SDS011;38809;53.300;6.614;2023-07-20T05:10:16;2.75;;;1.45;;
52942;SDS011;38809;53.300;6.614;2023-07-20T05:12:42;4.28;;;1.77;;
52942;SDS011;38809;53.300;6.614;2023-07-20T05:15:08;1.95;;;1.00;;
52942;SDS011;38809;53.300;6.614;2023-07-20T05:17:34;1.80;;;1.20;;
52942;SDS011;38809;53.300;6.614;2023-07-20T05:20:00;4.75;;;1.45;;
52942;SDS011;38809;53.300;6.614;2023-07-20T05:22:26;1.80;;;1.08;;
52942;SDS011;38809;53.300;6.614;2023-07-20T05:24:51;3.90;;;1.63;;
52942;SDS011;38809;53.300;6.614;2023-07-20T05:27:17;3.88;;;1.80;;
52942;SDS011;38809;53.300;6.614;2023-07-20T05:29:43;3.53;;;1.90;;
52942;SDS011;38809;53.300;6.614;2023-07-20T05:32:10;4.15;;;1.40;;
52942;SDS011;38809;53.300;6.614;2023-07-20T05:34:36;3.40;;;1.80;;
52942;SDS011;38809;53.300;6.614;2023-07-20T05:37:01;5.10;;;1.53;;
52942;SDS011;38809;53.300;6.614;2023-07-20T05:39:27;2.13;;;1.05;;
52942;SDS011;38809;53.300;6.614;2023-07-20T05:41:52;2.75;;;1.25;;
52942;SDS011;38809;53.300;6.614;2023-07-20T05:44:18;2.30;;;1.15;;
52942;SDS011;38809;53.300;6.614;2023-07-20T05:46:44;3.90;;;1.25;;
52942;SDS011;38809;53.300;6.614;2023-07-20T05:49:09;2.15;;;1.00;;
52942;SDS011;38809;53.300;6.614;2023-07-20T05:51:35;3.03;;;1.10;;
52942;SDS011;38809;53.300;6.614;2023-07-20T05:54:01;4.40;;;1.23;;
52942;SDS011;38809;53.300;6.614;2023-07-20T05:56:27;2.22;;;1.38;;
52942;SDS011;38809;53.300;6.614;2023-07-20T05:58:52;3.28;;;0.80;;
52942;SDS011;38809;53.300;6.614;2023-07-20T06:01:18;3.63;;;1.20;;
52942;SDS011;38809;53.300;6.614;2023-07-20T06:03:44;1.77;;;0.77;;
52942;SDS011;38809;53.300;6.614;2023-07-20T06:06:10;1.40;;;0.75;;
52942;SDS011;38809;53.300;6.614;2023-07-20T06:08:37;3.00;;;1.20;;
52942;SDS011;38809;53.300;6.614;2023-07-20T06:13:29;2.80;;;1.10;;
52942;SDS011;38809;53.300;6.614;2023-07-20T06:15:54;3.22;;;0.73;;
52942;SDS011;38809;53.300;6.614;2023-07-20T06:18:22;2.00;;;0.80;;
52942;SDS011;38809;53.300;6.614;2023-07-20T06:20:48;2.20;;;1.15;;
52942;SDS011;38809;53.300;6.614;2023-07-20T06:23:15;2.03;;;1.00;;
52942;SDS011;38809;53.300;6.614;2023-07-20T06:25:41;2.10;;;0.77;;
52942;SDS011;38809;53.300;6.614;2023-07-20T06:28:07;2.10;;;0.95;;
52942;SDS011;38809;53.300;6.614;2023-07-20T06:30:33;2.90;;;0.73;;
52942;SDS011;38809;53.300;6.614;2023-07-20T06:33:00;2.10;;;0.90;;
52942;SDS011;38809;53.300;6.614;2023-07-20T06:35:25;2.72;;;1.23;;
52942;SDS011;38809;53.300;6.614;2023-07-20T06:37:51;4.30;;;1.33;;
52942;SDS011;38809;53.300;6.614;2023-07-20T06:40:17;3.92;;;1.45;;
52942;SDS011;38809;53.300;6.614;2023-07-20T06:42:43;3.58;;;1.30;;
52942;SDS011;38809;53.300;6.614;2023-07-20T06:45:09;2.92;;;1.13;;
52942;SDS011;38809;53.300;6.614;2023-07-20T06:47:35;2.55;;;1.10;;
52942;SDS011;38809;53.300;6.614;2023-07-20T06:50:02;5.53;;;1.60;;
52942;SDS011;38809;53.300;6.614;2023-07-20T06:52:28;4.03;;;1.70;;
52942;SDS011;38809;53.300;6.614;2023-07-20T06:54:54;4.63;;;1.65;;
52942;SDS011;38809;53.300;6.614;2023-07-20T06:57:19;2.90;;;1.50;;
52942;SDS011;38809;53.300;6.614;2023-07-20T06:59:45;2.88;;;1.20;;
52942;SDS011;38809;53.300;6.614;2023-07-20T07:02:11;3.45;;;1.48;;
52942;SDS011;38809;53.300;6.614;2023-07-20T07:04:36;3.22;;;1.30;;
52942;SDS011;38809;53.300;6.614;2023-07-20T07:07:02;3.05;;;1.45;;
52942;SDS011;38809;53.300;6.614;2023-07-20T07:09:28;2.85;;;1.30;;
52942;SDS011;38809;53.300;6.614;2023-07-20T07:11:54;4.40;;;1.67;;
52942;SDS011;38809;53.300;6.614;2023-07-20T07:14:20;2.80;;;1.10;;
52942;SDS011;38809;53.300;6.614;2023-07-20T07:16:46;2.40;;;1.10;;
52942;SDS011;38809;53.300;6.614;2023-07-20T07:19:13;3.85;;;1.77;;
52942;SDS011;38809;53.300;6.614;2023-07-20T07:21:38;3.90;;;1.15;;
52942;SDS011;38809;53.300;6.614;2023-07-20T07:24:04;4.03;;;1.23;;
52942;SDS011;38809;53.300;6.614;2023-07-20T07:26:32;3.45;;;0.93;;
52942;SDS011;38809;53.300;6.614;2023-07-20T07:28:58;2.70;;;1.20;;
52942;SDS011;38809;53.300;6.614;2023-07-20T07:31:28;3.80;;;1.00;;
52942;SDS011;38809;53.300;6.614;2023-07-20T07:33:55;2.85;;;0.93;;
52942;SDS011;38809;53.300;6.614;2023-07-20T07:36:21;3.70;;;1.15;;
52942;SDS011;38809;53.300;6.614;2023-07-20T07:38:49;2.70;;;0.93;;
52942;SDS011;38809;53.300;6.614;2023-07-20T07:41:15;1.48;;;0.90;;
52942;SDS011;38809;53.300;6.614;2023-07-20T07:43:41;2.00;;;0.90;;
52942;SDS011;38809;53.300;6.614;2023-07-20T07:46:06;2.60;;;0.70;;
52942;SDS011;38809;53.300;6.614;2023-07-20T07:48:32;3.08;;;0.80;;
52942;SDS011;38809;53.300;6.614;2023-07-20T07:50:58;2.72;;;0.88;;
52942;SDS011;38809;53.300;6.614;2023-07-20T07:53:23;1.85;;;0.50;;
52942;SDS011;38809;53.300;6.614;2023-07-20T07:55:51;2.17;;;0.77;;
52942;SDS011;38809;53.300;6.614;2023-07-20T07:58:18;2.50;;;0.60;;
52942;SDS011;38809;53.300;6.614;2023-07-20T08:00:43;3.45;;;0.95;;
52942;SDS011;38809;53.300;6.614;2023-07-20T08:03:09;3.80;;;0.63;;
52942;SDS011;38809;53.300;6.614;2023-07-20T08:05:35;2.33;;;0.70;;
52942;SDS011;38809;53.300;6.614;2023-07-20T08:08:02;1.27;;;0.75;;
52942;SDS011;38809;53.300;6.614;2023-07-20T08:10:29;2.10;;;0.70;;
52942;SDS011;38809;53.300;6.614;2023-07-20T08:15:20;1.95;;;0.60;;
52942;SDS011;38809;53.300;6.614;2023-07-20T08:17:46;1.85;;;0.50;;
52942;SDS011;38809;53.300;6.614;2023-07-20T08:20:13;5.40;;;0.93;;
52942;SDS011;38809;53.300;6.614;2023-07-20T08:22:41;0.80;;;0.40;;
52942;SDS011;38809;53.300;6.614;2023-07-20T08:25:07;1.42;;;0.40;;
52942;SDS011;38809;53.300;6.614;2023-07-20T08:27:33;1.30;;;0.55;;
52942;SDS011;38809;53.300;6.614;2023-07-20T08:29:59;2.80;;;0.77;;
52942;SDS011;38809;53.300;6.614;2023-07-20T08:32:25;3.17;;;0.60;;
52942;SDS011;38809;53.300;6.614;2023-07-20T08:34:51;4.00;;;0.88;;
52942;SDS011;38809;53.300;6.614;2023-07-20T08:37:17;1.33;;;0.40;;
52942;SDS011;38809;53.300;6.614;2023-07-20T08:39:43;1.35;;;0.40;;
52942;SDS011;38809;53.300;6.614;2023-07-20T08:42:09;1.67;;;0.50;;
52942;SDS011;38809;53.300;6.614;2023-07-20T08:44:36;1.00;;;0.50;;
52942;SDS011;38809;53.300;6.614;2023-07-20T08:47:04;1.80;;;0.52;;
52942;SDS011;38809;53.300;6.614;2023-07-20T08:49:32;2.15;;;0.47;;
52942;SDS011;38809;53.300;6.614;2023-07-20T08:51:59;1.33;;;0.50;;
52942;SDS011;38809;53.300;6.614;2023-07-20T08:54:27;1.65;;;0.60;;
52942;SDS011;38809;53.300;6.614;2023-07-20T08:56:57;0.90;;;0.47;;
52942;SDS011;38809;53.300;6.614;2023-07-20T08:59:28;1.80;;;0.47;;
52942;SDS011;38809;53.300;6.614;2023-07-20T09:01:56;5.68;;;0.70;;
52942;SDS011;38809;53.300;6.614;2023-07-20T09:04:23;2.35;;;0.63;;
52942;SDS011;38809;53.300;6.614;2023-07-20T09:06:49;6.78;;;0.70;;
52942;SDS011;38809;53.300;6.614;2023-07-20T09:09:15;2.10;;;0.45;;
52942;SDS011;38809;53.300;6.614;2023-07-20T09:11:41;2.65;;;0.55;;
52942;SDS011;38809;53.300;6.614;2023-07-20T09:14:08;1.80;;;0.60;;
52942;SDS011;38809;53.300;6.614;2023-07-20T09:16:47;2.17;;;0.65;;
52942;SDS011;38809;53.300;6.614;2023-07-20T09:19:18;1.88;;;0.60;;
52942;SDS011;38809;53.300;6.614;2023-07-20T09:21:48;3.13;;;0.68;;
52942;SDS011;38809;53.300;6.614;2023-07-20T09:24:15;1.40;;;0.60;;
52942;SDS011;38809;53.300;6.614;2023-07-20T09:26:45;2.10;;;0.50;;
52942;SDS011;38809;53.300;6.614;2023-07-20T09:29:19;1.58;;;0.43;;
52942;SDS011;38809;53.300;6.614;2023-07-20T09:32:00;1.52;;;0.38;;
52942;SDS011;38809;53.300;6.614;2023-07-20T09:34:30;1.80;;;0.55;;
52942;SDS011;38809;53.300;6.614;2023-07-20T09:36:59;1.60;;;0.50;;
52942;SDS011;38809;53.300;6.614;2023-07-20T09:39:25;1.45;;;0.40;;
52942;SDS011;38809;53.300;6.614;2023-07-20T09:44:17;0.90;;;0.40;;
52942;SDS011;38809;53.300;6.614;2023-07-20T09:46:46;1.98;;;0.60;;
52942;SDS011;38809;53.300;6.614;2023-07-20T09:49:14;2.20;;;0.60;;
52942;SDS011;38809;53.300;6.614;2023-07-20T09:54:06;1.92;;;0.70;;
52942;SDS011;38809;53.300;6.614;2023-07-20T09:56:32;1.75;;;0.77;;
52942;SDS011;38809;53.300;6.614;2023-07-20T09:58:58;3.28;;;0.70;;
52942;SDS011;38809;53.300;6.614;2023-07-20T10:01:24;2.88;;;0.65;;
52942;SDS011;38809;53.300;6.614;2023-07-20T10:03:54;1.15;;;0.50;;
52942;SDS011;38809;53.300;6.614;2023-07-20T10:06:23;0.90;;;0.38;;
52942;SDS011;38809;53.300;6.614;2023-07-20T10:08:52;1.70;;;0.30;;
52942;SDS011;38809;53.300;6.614;2023-07-20T10:11:18;0.85;;;0.32;;
52942;SDS011;38809;53.300;6.614;2023-07-20T10:13:47;1.42;;;0.30;;
52942;SDS011;38809;53.300;6.614;2023-07-20T10:16:35;0.82;;;0.40;;
52942;SDS011;38809;53.300;6.614;2023-07-20T10:19:10;1.00;;;0.50;;
52942;SDS011;38809;53.300;6.614;2023-07-20T10:21:42;1.50;;;0.40;;
52942;SDS011;38809;53.300;6.614;2023-07-20T10:24:13;2.70;;;0.40;;
52942;SDS011;38809;53.300;6.614;2023-07-20T10:26:41;1.17;;;0.40;;
52942;SDS011;38809;53.300;6.614;2023-07-20T10:29:07;1.23;;;0.30;;
52942;SDS011;38809;53.300;6.614;2023-07-20T10:31:33;1.73;;;0.40;;
52942;SDS011;38809;53.300;6.614;2023-07-20T10:34:00;1.58;;;0.40;;
52942;SDS011;38809;53.300;6.614;2023-07-20T10:36:27;1.48;;;0.70;;
52942;SDS011;38809;53.300;6.614;2023-07-20T10:38:54;2.08;;;0.45;;
52942;SDS011;38809;53.300;6.614;2023-07-20T10:41:34;2.60;;;0.90;;
52942;SDS011;38809;53.300;6.614;2023-07-20T10:44:04;1.42;;;0.40;;
52942;SDS011;38809;53.300;6.614;2023-07-20T10:49:08;1.33;;;0.52;;
52942;SDS011;38809;53.300;6.614;2023-07-20T10:51:45;0.60;;;0.35;;
52942;SDS011;38809;53.300;6.614;2023-07-20T10:56:41;1.25;;;0.50;;
52942;SDS011;38809;53.300;6.614;2023-07-20T10:59:18;1.30;;;0.40;;
52942;SDS011;38809;53.300;6.614;2023-07-20T11:01:58;1.00;;;0.38;;
52942;SDS011;38809;53.300;6.614;2023-07-20T11:07:05;0.80;;;0.30;;
52942;SDS011;38809;53.300;6.614;2023-07-20T11:09:37;1.48;;;0.50;;
52942;SDS011;38809;53.300;6.614;2023-07-20T11:12:10;0.88;;;0.40;;
52942;SDS011;38809;53.300;6.614;2023-07-20T11:14:39;2.00;;;0.50;;
52942;SDS011;38809;53.300;6.614;2023-07-20T11:17:13;1.00;;;0.43;;
52942;SDS011;38809;53.300;6.614;2023-07-20T11:19:40;0.52;;;0.28;;
52942;SDS011;38809;53.300;6.614;2023-07-20T11:24:37;1.75;;;0.52;;
52942;SDS011;38809;53.300;6.614;2023-07-20T11:27:04;1.58;;;0.50;;
52942;SDS011;38809;53.300;6.614;2023-07-20T11:29:30;0.55;;;0.30;;
52942;SDS011;38809;53.300;6.614;2023-07-20T11:31:56;0.38;;;0.30;;
52942;SDS011;38809;53.300;6.614;2023-07-20T11:34:23;1.30;;;0.50;;
52942;SDS011;38809;53.300;6.614;2023-07-20T11:36:50;1.55;;;0.50;;
52942;SDS011;38809;53.300;6.614;2023-07-20T11:39:19;1.23;;;0.70;;
52942;SDS011;38809;53.300;6.614;2023-07-20T11:41:50;1.33;;;0.50;;
52942;SDS011;38809;53.300;6.614;2023-07-20T11:44:23;1.38;;;0.45;;
52942;SDS011;38809;53.300;6.614;2023-07-20T11:47:06;1.30;;;0.40;;
52942;SDS011;38809;53.300;6.614;2023-07-20T11:49:37;1.17;;;0.40;;
52942;SDS011;38809;53.300;6.614;2023-07-20T11:52:05;1.10;;;0.30;;
52942;SDS011;38809;53.300;6.614;2023-07-20T11:54:32;0.95;;;0.20;;
52942;SDS011;38809;53.300;6.614;2023-07-20T11:57:05;1.05;;;0.30;;
52942;SDS011;38809;53.300;6.614;2023-07-20T11:59:31;1.02;;;0.40;;
52942;SDS011;38809;53.300;6.614;2023-07-20T12:04:26;3.22;;;0.47;;
52942;SDS011;38809;53.300;6.614;2023-07-20T12:06:53;1.67;;;0.32;;
52942;SDS011;38809;53.300;6.614;2023-07-20T12:09:20;1.30;;;0.40;;
52942;SDS011;38809;53.300;6.614;2023-07-20T12:11:48;1.45;;;0.40;;
52942;SDS011;38809;53.300;6.614;2023-07-20T12:14:15;0.77;;;0.40;;
52942;SDS011;38809;53.300;6.614;2023-07-20T12:16:41;0.80;;;0.28;;
52942;SDS011;38809;53.300;6.614;2023-07-20T12:19:12;1.67;;;0.30;;
52942;SDS011;38809;53.300;6.614;2023-07-20T12:21:39;1.45;;;0.40;;
52942;SDS011;38809;53.300;6.614;2023-07-20T12:24:07;1.05;;;0.32;;
52942;SDS011;38809;53.300;6.614;2023-07-20T12:26:34;0.80;;;0.38;;
52942;SDS011;38809;53.300;6.614;2023-07-20T12:29:00;0.50;;;0.30;;
52942;SDS011;38809;53.300;6.614;2023-07-20T12:31:28;1.05;;;0.28;;
52942;SDS011;38809;53.300;6.614;2023-07-20T12:33:56;0.88;;;0.35;;
52942;SDS011;38809;53.300;6.614;2023-07-20T12:36:22;1.35;;;0.50;;
52942;SDS011;38809;53.300;6.614;2023-07-20T12:38:49;1.35;;;0.40;;
52942;SDS011;38809;53.300;6.614;2023-07-20T12:41:14;0.85;;;0.40;;
52942;SDS011;38809;53.300;6.614;2023-07-20T12:43:40;1.77;;;0.40;;
52942;SDS011;38809;53.300;6.614;2023-07-20T12:46:10;0.63;;;0.30;;
52942;SDS011;38809;53.300;6.614;2023-07-20T12:48:37;0.95;;;0.38;;
52942;SDS011;38809;53.300;6.614;2023-07-20T12:51:03;1.35;;;0.40;;
52942;SDS011;38809;53.300;6.614;2023-07-20T12:55:56;1.85;;;0.47;;
52942;SDS011;38809;53.300;6.614;2023-07-20T12:58:21;1.30;;;0.40;;
52942;SDS011;38809;53.300;6.614;2023-07-20T13:00:48;2.28;;;0.55;;
52942;SDS011;38809;53.300;6.614;2023-07-20T13:03:14;1.40;;;0.50;;
52942;SDS011;38809;53.300;6.614;2023-07-20T13:05:41;1.65;;;0.45;;
52942;SDS011;38809;53.300;6.614;2023-07-20T13:08:07;2.65;;;0.90;;
52942;SDS011;38809;53.300;6.614;2023-07-20T13:10:32;1.77;;;0.52;;
52942;SDS011;38809;53.300;6.614;2023-07-20T13:12:59;1.00;;;0.40;;
52942;SDS011;38809;53.300;6.614;2023-07-20T13:15:29;1.15;;;0.50;;
52942;SDS011;38809;53.300;6.614;2023-07-20T13:17:59;0.68;;;0.35;;
52942;SDS011;38809;53.300;6.614;2023-07-20T13:20:25;3.65;;;0.68;;
52942;SDS011;38809;53.300;6.614;2023-07-20T13:22:53;0.85;;;0.38;;
52942;SDS011;38809;53.300;6.614;2023-07-20T13:25:20;1.10;;;0.30;;
52942;SDS011;38809;53.300;6.614;2023-07-20T13:27:45;1.35;;;0.50;;
52942;SDS011;38809;53.300;6.614;2023-07-20T13:30:11;1.10;;;0.30;;
52942;SDS011;38809;53.300;6.614;2023-07-20T13:32:42;2.35;;;0.60;;
52942;SDS011;38809;53.300;6.614;2023-07-20T13:35:08;1.02;;;0.43;;
52942;SDS011;38809;53.300;6.614;2023-07-20T13:40:00;2.38;;;0.50;;
52942;SDS011;38809;53.300;6.614;2023-07-20T13:42:26;2.13;;;0.38;;
52942;SDS011;38809;53.300;6.614;2023-07-20T13:44:51;1.23;;;0.40;;
52942;SDS011;38809;53.300;6.614;2023-07-20T13:47:17;1.60;;;0.47;;
52942;SDS011;38809;53.300;6.614;2023-07-20T13:49:43;1.27;;;0.50;;
52942;SDS011;38809;53.300;6.614;2023-07-20T13:52:09;6.82;;;0.60;;
52942;SDS011;38809;53.300;6.614;2023-07-20T13:54:34;3.38;;;0.73;;
52942;SDS011;38809;53.300;6.614;2023-07-20T13:57:00;1.00;;;0.32;;
52942;SDS011;38809;53.300;6.614;2023-07-20T13:59:26;1.20;;;0.50;;
52942;SDS011;38809;53.300;6.614;2023-07-20T14:01:52;1.20;;;0.65;;
52942;SDS011;38809;53.300;6.614;2023-07-20T14:04:17;1.08;;;0.40;;
52942;SDS011;38809;53.300;6.614;2023-07-20T14:09:09;1.13;;;0.40;;
52942;SDS011;38809;53.300;6.614;2023-07-20T14:11:35;1.55;;;0.40;;
52942;SDS011;38809;53.300;6.614;2023-07-20T14:14:01;1.65;;;0.40;;
52942;SDS011;38809;53.300;6.614;2023-07-20T14:16:26;2.03;;;0.50;;
52942;SDS011;38809;53.300;6.614;2023-07-20T14:18:52;1.35;;;0.60;;
52942;SDS011;38809;53.300;6.614;2023-07-20T14:21:18;1.15;;;0.40;;
52942;SDS011;38809;53.300;6.614;2023-07-20T14:23:45;1.73;;;0.52;;
52942;SDS011;38809;53.300;6.614;2023-07-20T14:26:12;0.52;;;0.38;;
52942;SDS011;38809;53.300;6.614;2023-07-20T14:31:03;1.27;;;0.40;;
52942;SDS011;38809;53.300;6.614;2023-07-20T14:35:55;1.90;;;0.50;;
52942;SDS011;38809;53.300;6.614;2023-07-20T14:38:21;1.25;;;0.60;;
52942;SDS011;38809;53.300;6.614;2023-07-20T14:40:47;1.08;;;0.40;;
52942;SDS011;38809;53.300;6.614;2023-07-20T14:43:12;0.98;;;0.35;;
52942;SDS011;38809;53.300;6.614;2023-07-20T14:48:06;2.00;;;0.63;;
52942;SDS011;38809;53.300;6.614;2023-07-20T14:50:31;1.70;;;0.65;;
52942;SDS011;38809;53.300;6.614;2023-07-20T14:52:57;2.10;;;0.50;;
52942;SDS011;38809;53.300;6.614;2023-07-20T14:55:23;1.92;;;0.50;;
52942;SDS011;38809;53.300;6.614;2023-07-20T14:57:48;1.52;;;0.70;;
52942;SDS011;38809;53.300;6.614;2023-07-20T15:00:14;1.45;;;0.65;;
52942;SDS011;38809;53.300;6.614;2023-07-20T15:02:40;1.92;;;0.80;;
52942;SDS011;38809;53.300;6.614;2023-07-20T15:05:06;1.92;;;0.70;;
52942;SDS011;38809;53.300;6.614;2023-07-20T15:07:33;1.63;;;0.73;;
52942;SDS011;38809;53.300;6.614;2023-07-20T15:09:59;1.42;;;0.57;;
52942;SDS011;38809;53.300;6.614;2023-07-20T15:12:25;2.08;;;0.70;;
52942;SDS011;38809;53.300;6.614;2023-07-20T15:15:04;1.35;;;0.55;;
52942;SDS011;38809;53.300;6.614;2023-07-20T15:17:32;2.60;;;0.70;;
52942;SDS011;38809;53.300;6.614;2023-07-20T15:19:58;2.63;;;1.10;;
52942;SDS011;38809;53.300;6.614;2023-07-20T15:22:24;1.50;;;0.65;;
52942;SDS011;38809;53.300;6.614;2023-07-20T15:24:50;1.98;;;0.73;;
52942;SDS011;38809;53.300;6.614;2023-07-20T15:27:16;3.22;;;1.23;;
52942;SDS011;38809;53.300;6.614;2023-07-20T15:29:42;1.73;;;0.80;;
52942;SDS011;38809;53.300;6.614;2023-07-20T15:32:09;1.40;;;0.60;;
52942;SDS011;38809;53.300;6.614;2023-07-20T15:34:35;1.83;;;0.88;;
52942;SDS011;38809;53.300;6.614;2023-07-20T15:37:01;1.75;;;0.60;;
52942;SDS011;38809;53.300;6.614;2023-07-20T15:39:27;1.33;;;0.60;;
52942;SDS011;38809;53.300;6.614;2023-07-20T15:41:54;2.50;;;0.70;;
52942;SDS011;38809;53.300;6.614;2023-07-20T15:44:20;2.83;;;0.70;;
52942;SDS011;38809;53.300;6.614;2023-07-20T15:46:47;2.10;;;0.80;;
52942;SDS011;38809;53.300;6.614;2023-07-20T15:49:13;1.42;;;0.68;;